Terminal Aerodrome Forecast
Issued by NWS Atlanta, GA

Home | Current Version | Previous Version | Text Only | Print | Product List | Glossary On
Versions: 1 2 3 4 5 6 7 8 9 10 11 12 13 14 15 16 17 18 19 20
000
FTUS42 KFFC 272331
TAFCSG
TAF
KCSG 272331Z 2800/2824 02005KT P6SM SCT250
     FM280900 05006KT P6SM SCT050
     FM281500 08011G18KT P6SM SCT050 BKN080
     FM281800 09010G15KT P6SM BKN045
     FM282100 09008KT P6SM OVC035=

USA.gov is the U.S. government's official web portal to all federal, state and local government web resources and services.